sensor_id;sensor_type;location;lat;lon;timestamp;P1;durP1;ratioP1;P2;durP2;ratioP2
31746;SDS011;18319;48.974;8.462;2022-12-08T00:02:18;9.03;;;6.47;;
31746;SDS011;18319;48.974;8.462;2022-12-08T00:04:45;7.57;;;5.67;;
31746;SDS011;18319;48.974;8.462;2022-12-08T00:07:31;8.50;;;6.43;;
31746;SDS011;18319;48.974;8.462;2022-12-08T00:10:16;8.77;;;6.67;;
31746;SDS011;18319;48.974;8.462;2022-12-08T00:12:43;10.57;;;6.27;;
31746;SDS011;18319;48.974;8.462;2022-12-08T00:15:10;7.97;;;6.13;;
31746;SDS011;18319;48.974;8.462;2022-12-08T00:17:37;13.83;;;6.60;;
31746;SDS011;18319;48.974;8.462;2022-12-08T00:20:05;10.23;;;6.53;;
31746;SDS011;18319;48.974;8.462;2022-12-08T00:22:33;11.03;;;6.90;;
31746;SDS011;18319;48.974;8.462;2022-12-08T00:25:00;12.30;;;6.07;;
31746;SDS011;18319;48.974;8.462;2022-12-08T00:27:27;10.53;;;6.43;;
31746;SDS011;18319;48.974;8.462;2022-12-08T00:29:54;12.53;;;6.90;;
31746;SDS011;18319;48.974;8.462;2022-12-08T00:32:21;12.47;;;6.87;;
31746;SDS011;18319;48.974;8.462;2022-12-08T00:34:48;13.23;;;7.00;;
31746;SDS011;18319;48.974;8.462;2022-12-08T00:37:16;9.10;;;7.07;;
31746;SDS011;18319;48.974;8.462;2022-12-08T00:39:44;12.20;;;6.97;;
31746;SDS011;18319;48.974;8.462;2022-12-08T00:42:11;15.87;;;7.60;;
31746;SDS011;18319;48.974;8.462;2022-12-08T00:44:38;12.10;;;7.33;;
31746;SDS011;18319;48.974;8.462;2022-12-08T00:47:05;10.10;;;6.80;;
31746;SDS011;18319;48.974;8.462;2022-12-08T00:49:32;12.00;;;7.07;;
31746;SDS011;18319;48.974;8.462;2022-12-08T00:51:59;8.83;;;6.23;;
31746;SDS011;18319;48.974;8.462;2022-12-08T00:54:27;11.23;;;6.33;;
31746;SDS011;18319;48.974;8.462;2022-12-08T00:56:55;12.80;;;6.80;;
31746;SDS011;18319;48.974;8.462;2022-12-08T00:59:22;8.63;;;5.90;;
31746;SDS011;18319;48.974;8.462;2022-12-08T01:01:49;12.97;;;6.10;;
31746;SDS011;18319;48.974;8.462;2022-12-08T01:04:17;10.93;;;5.60;;
31746;SDS011;18319;48.974;8.462;2022-12-08T01:06:44;11.97;;;6.57;;
31746;SDS011;18319;48.974;8.462;2022-12-08T01:09:12;7.07;;;5.43;;
31746;SDS011;18319;48.974;8.462;2022-12-08T01:11:39;9.47;;;5.57;;
31746;SDS011;18319;48.974;8.462;2022-12-08T01:14:09;9.20;;;5.60;;
31746;SDS011;18319;48.974;8.462;2022-12-08T01:16:36;8.83;;;5.23;;
31746;SDS011;18319;48.974;8.462;2022-12-08T01:19:05;7.67;;;5.83;;
31746;SDS011;18319;48.974;8.462;2022-12-08T01:21:32;7.53;;;4.70;;
31746;SDS011;18319;48.974;8.462;2022-12-08T01:23:59;8.03;;;5.27;;
31746;SDS011;18319;48.974;8.462;2022-12-08T01:26:27;8.37;;;4.60;;
31746;SDS011;18319;48.974;8.462;2022-12-08T01:28:54;7.70;;;5.17;;
31746;SDS011;18319;48.974;8.462;2022-12-08T01:31:22;6.57;;;5.23;;
31746;SDS011;18319;48.974;8.462;2022-12-08T01:33:49;7.10;;;4.87;;
31746;SDS011;18319;48.974;8.462;2022-12-08T01:36:18;8.03;;;5.03;;
31746;SDS011;18319;48.974;8.462;2022-12-08T01:38:45;9.47;;;6.27;;
31746;SDS011;18319;48.974;8.462;2022-12-08T01:41:13;8.90;;;5.43;;
31746;SDS011;18319;48.974;8.462;2022-12-08T01:43:56;8.33;;;5.23;;
31746;SDS011;18319;48.974;8.462;2022-12-08T01:46:25;7.40;;;4.73;;
31746;SDS011;18319;48.974;8.462;2022-12-08T01:48:53;7.37;;;4.60;;
31746;SDS011;18319;48.974;8.462;2022-12-08T01:51:21;6.50;;;4.73;;
31746;SDS011;18319;48.974;8.462;2022-12-08T01:53:49;8.80;;;4.63;;
31746;SDS011;18319;48.974;8.462;2022-12-08T01:56:17;5.37;;;4.73;;
31746;SDS011;18319;48.974;8.462;2022-12-08T01:58:46;9.87;;;5.40;;
31746;SDS011;18319;48.974;8.462;2022-12-08T02:01:14;6.30;;;4.17;;
31746;SDS011;18319;48.974;8.462;2022-12-08T02:03:44;4.80;;;4.03;;
31746;SDS011;18319;48.974;8.462;2022-12-08T02:06:12;7.20;;;4.90;;
31746;SDS011;18319;48.974;8.462;2022-12-08T02:08:40;5.70;;;4.73;;
31746;SDS011;18319;48.974;8.462;2022-12-08T02:11:07;5.50;;;4.63;;
31746;SDS011;18319;48.974;8.462;2022-12-08T02:13:35;4.97;;;4.10;;
31746;SDS011;18319;48.974;8.462;2022-12-08T02:16:04;9.03;;;5.47;;
31746;SDS011;18319;48.974;8.462;2022-12-08T02:18:38;6.83;;;4.80;;
31746;SDS011;18319;48.974;8.462;2022-12-08T02:21:09;7.67;;;5.03;;
31746;SDS011;18319;48.974;8.462;2022-12-08T02:23:40;5.23;;;4.73;;
31746;SDS011;18319;48.974;8.462;2022-12-08T02:26:27;6.80;;;4.30;;
31746;SDS011;18319;48.974;8.462;2022-12-08T02:29:08;4.63;;;4.23;;
31746;SDS011;18319;48.974;8.462;2022-12-08T02:31:44;5.80;;;4.57;;
31746;SDS011;18319;48.974;8.462;2022-12-08T02:34:19;6.90;;;3.83;;
31746;SDS011;18319;48.974;8.462;2022-12-08T02:36:52;6.30;;;3.87;;
31746;SDS011;18319;48.974;8.462;2022-12-08T02:39:24;6.33;;;4.30;;
31746;SDS011;18319;48.974;8.462;2022-12-08T02:41:56;5.47;;;3.93;;
31746;SDS011;18319;48.974;8.462;2022-12-08T02:44:26;5.07;;;4.13;;
31746;SDS011;18319;48.974;8.462;2022-12-08T02:46:56;4.47;;;3.80;;
31746;SDS011;18319;48.974;8.462;2022-12-08T02:49:27;4.57;;;3.30;;
31746;SDS011;18319;48.974;8.462;2022-12-08T02:52:02;5.20;;;3.73;;
31746;SDS011;18319;48.974;8.462;2022-12-08T02:54:30;4.03;;;3.60;;
31746;SDS011;18319;48.974;8.462;2022-12-08T02:57:02;5.63;;;3.57;;
31746;SDS011;18319;48.974;8.462;2022-12-08T02:59:33;6.13;;;3.77;;
31746;SDS011;18319;48.974;8.462;2022-12-08T03:04:49;6.33;;;4.53;;
31746;SDS011;18319;48.974;8.462;2022-12-08T03:07:20;4.13;;;3.37;;
31746;SDS011;18319;48.974;8.462;2022-12-08T03:09:49;4.30;;;3.80;;
31746;SDS011;18319;48.974;8.462;2022-12-08T03:12:17;5.17;;;4.00;;
31746;SDS011;18319;48.974;8.462;2022-12-08T03:14:45;5.83;;;4.27;;
31746;SDS011;18319;48.974;8.462;2022-12-08T03:17:13;5.10;;;3.57;;
31746;SDS011;18319;48.974;8.462;2022-12-08T03:19:42;7.17;;;4.57;;
31746;SDS011;18319;48.974;8.462;2022-12-08T03:22:11;4.90;;;4.30;;
31746;SDS011;18319;48.974;8.462;2022-12-08T03:24:39;6.27;;;4.47;;
31746;SDS011;18319;48.974;8.462;2022-12-08T03:27:08;7.33;;;4.13;;
31746;SDS011;18319;48.974;8.462;2022-12-08T03:29:36;9.17;;;4.73;;
31746;SDS011;18319;48.974;8.462;2022-12-08T03:32:05;5.80;;;4.37;;
31746;SDS011;18319;48.974;8.462;2022-12-08T03:34:34;4.33;;;3.77;;
31746;SDS011;18319;48.974;8.462;2022-12-08T03:37:02;5.37;;;3.90;;
31746;SDS011;18319;48.974;8.462;2022-12-08T03:39:31;4.50;;;4.00;;
31746;SDS011;18319;48.974;8.462;2022-12-08T03:41:58;5.00;;;3.67;;
31746;SDS011;18319;48.974;8.462;2022-12-08T03:44:25;6.57;;;4.77;;
31746;SDS011;18319;48.974;8.462;2022-12-08T03:46:52;3.40;;;3.10;;
31746;SDS011;18319;48.974;8.462;2022-12-08T03:49:19;4.50;;;3.60;;
31746;SDS011;18319;48.974;8.462;2022-12-08T03:51:46;8.80;;;4.13;;
31746;SDS011;18319;48.974;8.462;2022-12-08T03:54:13;4.97;;;4.47;;
31746;SDS011;18319;48.974;8.462;2022-12-08T03:56:41;5.50;;;4.07;;
31746;SDS011;18319;48.974;8.462;2022-12-08T03:59:09;9.07;;;4.10;;
31746;SDS011;18319;48.974;8.462;2022-12-08T04:01:36;6.97;;;5.00;;
31746;SDS011;18319;48.974;8.462;2022-12-08T04:04:03;7.33;;;3.37;;
31746;SDS011;18319;48.974;8.462;2022-12-08T04:06:30;3.80;;;3.50;;
31746;SDS011;18319;48.974;8.462;2022-12-08T04:08:57;5.93;;;4.13;;
31746;SDS011;18319;48.974;8.462;2022-12-08T04:11:24;9.07;;;4.87;;
31746;SDS011;18319;48.974;8.462;2022-12-08T04:13:53;8.80;;;4.67;;
31746;SDS011;18319;48.974;8.462;2022-12-08T04:16:21;5.07;;;3.93;;
31746;SDS011;18319;48.974;8.462;2022-12-08T04:18:48;5.97;;;4.57;;
31746;SDS011;18319;48.974;8.462;2022-12-08T04:21:16;8.00;;;4.73;;
31746;SDS011;18319;48.974;8.462;2022-12-08T04:23:43;10.07;;;5.13;;
31746;SDS011;18319;48.974;8.462;2022-12-08T04:26:10;9.70;;;5.30;;
31746;SDS011;18319;48.974;8.462;2022-12-08T04:28:38;6.60;;;4.97;;
31746;SDS011;18319;48.974;8.462;2022-12-08T04:31:06;6.93;;;5.20;;
31746;SDS011;18319;48.974;8.462;2022-12-08T04:33:33;8.70;;;5.73;;
31746;SDS011;18319;48.974;8.462;2022-12-08T04:36:01;7.37;;;4.77;;
31746;SDS011;18319;48.974;8.462;2022-12-08T04:38:28;7.03;;;5.93;;
31746;SDS011;18319;48.974;8.462;2022-12-08T04:40:55;6.97;;;4.70;;
31746;SDS011;18319;48.974;8.462;2022-12-08T04:43:22;5.77;;;4.70;;
31746;SDS011;18319;48.974;8.462;2022-12-08T04:45:49;5.00;;;4.43;;
31746;SDS011;18319;48.974;8.462;2022-12-08T04:48:17;7.20;;;5.20;;
31746;SDS011;18319;48.974;8.462;2022-12-08T04:50:45;6.67;;;4.67;;
31746;SDS011;18319;48.974;8.462;2022-12-08T04:53:12;9.03;;;5.00;;
31746;SDS011;18319;48.974;8.462;2022-12-08T04:55:39;8.97;;;5.80;;
31746;SDS011;18319;48.974;8.462;2022-12-08T04:58:09;6.03;;;4.87;;
31746;SDS011;18319;48.974;8.462;2022-12-08T05:00:37;7.93;;;4.90;;
31746;SDS011;18319;48.974;8.462;2022-12-08T05:03:04;9.90;;;6.10;;
31746;SDS011;18319;48.974;8.462;2022-12-08T05:05:32;7.07;;;5.00;;
31746;SDS011;18319;48.974;8.462;2022-12-08T05:08:00;8.00;;;5.83;;
31746;SDS011;18319;48.974;8.462;2022-12-08T05:10:27;10.53;;;5.73;;
31746;SDS011;18319;48.974;8.462;2022-12-08T05:12:54;8.03;;;5.43;;
31746;SDS011;18319;48.974;8.462;2022-12-08T05:15:21;8.93;;;6.30;;
31746;SDS011;18319;48.974;8.462;2022-12-08T05:17:48;9.37;;;5.70;;
31746;SDS011;18319;48.974;8.462;2022-12-08T05:20:15;8.67;;;5.77;;
31746;SDS011;18319;48.974;8.462;2022-12-08T05:22:44;8.63;;;5.70;;
31746;SDS011;18319;48.974;8.462;2022-12-08T05:25:11;9.30;;;5.90;;
31746;SDS011;18319;48.974;8.462;2022-12-08T05:27:38;9.27;;;6.23;;
31746;SDS011;18319;48.974;8.462;2022-12-08T05:30:07;12.10;;;7.33;;
31746;SDS011;18319;48.974;8.462;2022-12-08T05:32:34;10.83;;;5.80;;
31746;SDS011;18319;48.974;8.462;2022-12-08T05:35:01;9.77;;;6.27;;
31746;SDS011;18319;48.974;8.462;2022-12-08T05:37:28;13.40;;;6.53;;
31746;SDS011;18319;48.974;8.462;2022-12-08T05:39:56;9.90;;;6.53;;
31746;SDS011;18319;48.974;8.462;2022-12-08T05:42:24;11.17;;;6.33;;
31746;SDS011;18319;48.974;8.462;2022-12-08T05:44:51;9.20;;;5.93;;
31746;SDS011;18319;48.974;8.462;2022-12-08T05:47:18;13.80;;;6.07;;
31746;SDS011;18319;48.974;8.462;2022-12-08T05:49:45;7.00;;;5.27;;
31746;SDS011;18319;48.974;8.462;2022-12-08T05:52:12;7.40;;;5.17;;
31746;SDS011;18319;48.974;8.462;2022-12-08T05:54:40;9.47;;;6.40;;
31746;SDS011;18319;48.974;8.462;2022-12-08T05:57:09;11.03;;;7.00;;
31746;SDS011;18319;48.974;8.462;2022-12-08T05:59:36;10.10;;;6.50;;
31746;SDS011;18319;48.974;8.462;2022-12-08T06:02:04;12.97;;;7.70;;
31746;SDS011;18319;48.974;8.462;2022-12-08T06:04:32;10.20;;;7.00;;
31746;SDS011;18319;48.974;8.462;2022-12-08T06:06:59;12.00;;;7.23;;
31746;SDS011;18319;48.974;8.462;2022-12-08T06:09:26;11.07;;;6.83;;
31746;SDS011;18319;48.974;8.462;2022-12-08T06:11:53;9.23;;;6.23;;
31746;SDS011;18319;48.974;8.462;2022-12-08T06:14:22;9.33;;;6.87;;
31746;SDS011;18319;48.974;8.462;2022-12-08T06:16:49;10.97;;;6.67;;
31746;SDS011;18319;48.974;8.462;2022-12-08T06:19:16;12.13;;;7.37;;
31746;SDS011;18319;48.974;8.462;2022-12-08T06:21:43;15.43;;;7.83;;
31746;SDS011;18319;48.974;8.462;2022-12-08T06:24:10;15.67;;;8.40;;
31746;SDS011;18319;48.974;8.462;2022-12-08T06:26:37;13.10;;;8.20;;
31746;SDS011;18319;48.974;8.462;2022-12-08T06:29:05;13.60;;;8.00;;
31746;SDS011;18319;48.974;8.462;2022-12-08T06:31:34;13.87;;;8.53;;
31746;SDS011;18319;48.974;8.462;2022-12-08T06:34:01;11.93;;;8.57;;
31746;SDS011;18319;48.974;8.462;2022-12-08T06:36:28;14.83;;;8.47;;
31746;SDS011;18319;48.974;8.462;2022-12-08T06:38:55;11.93;;;7.60;;
31746;SDS011;18319;48.974;8.462;2022-12-08T06:41:23;11.17;;;7.80;;
31746;SDS011;18319;48.974;8.462;2022-12-08T06:43:50;8.90;;;7.47;;
31746;SDS011;18319;48.974;8.462;2022-12-08T06:46:18;11.53;;;7.43;;
31746;SDS011;18319;48.974;8.462;2022-12-08T06:48:46;9.70;;;7.07;;
31746;SDS011;18319;48.974;8.462;2022-12-08T06:51:15;10.97;;;7.40;;
31746;SDS011;18319;48.974;8.462;2022-12-08T06:53:43;12.50;;;7.43;;
31746;SDS011;18319;48.974;8.462;2022-12-08T06:56:10;11.80;;;7.87;;
31746;SDS011;18319;48.974;8.462;2022-12-08T06:58:38;12.53;;;7.60;;
31746;SDS011;18319;48.974;8.462;2022-12-08T07:01:05;12.83;;;8.17;;
31746;SDS011;18319;48.974;8.462;2022-12-08T07:03:33;16.77;;;8.40;;
31746;SDS011;18319;48.974;8.462;2022-12-08T07:06:02;12.03;;;8.03;;
31746;SDS011;18319;48.974;8.462;2022-12-08T07:08:29;13.73;;;7.83;;
31746;SDS011;18319;48.974;8.462;2022-12-08T07:10:56;14.13;;;7.93;;
31746;SDS011;18319;48.974;8.462;2022-12-08T07:13:23;13.87;;;8.33;;
31746;SDS011;18319;48.974;8.462;2022-12-08T07:15:50;13.50;;;8.33;;
31746;SDS011;18319;48.974;8.462;2022-12-08T07:18:17;16.90;;;9.73;;
31746;SDS011;18319;48.974;8.462;2022-12-08T07:20:44;16.07;;;8.37;;
31746;SDS011;18319;48.974;8.462;2022-12-08T07:23:13;15.53;;;9.27;;
31746;SDS011;18319;48.974;8.462;2022-12-08T07:25:40;16.23;;;9.83;;
31746;SDS011;18319;48.974;8.462;2022-12-08T07:28:08;24.60;;;11.23;;
31746;SDS011;18319;48.974;8.462;2022-12-08T07:30:35;14.17;;;8.67;;
31746;SDS011;18319;48.974;8.462;2022-12-08T07:33:02;15.83;;;9.57;;
31746;SDS011;18319;48.974;8.462;2022-12-08T07:35:29;18.77;;;10.13;;
31746;SDS011;18319;48.974;8.462;2022-12-08T07:37:56;16.33;;;10.33;;
31746;SDS011;18319;48.974;8.462;2022-12-08T07:40:25;18.37;;;10.10;;
31746;SDS011;18319;48.974;8.462;2022-12-08T07:42:52;21.50;;;10.87;;
31746;SDS011;18319;48.974;8.462;2022-12-08T07:45:19;18.37;;;10.70;;
31746;SDS011;18319;48.974;8.462;2022-12-08T07:47:46;17.07;;;10.27;;
31746;SDS011;18319;48.974;8.462;2022-12-08T07:50:13;19.93;;;11.50;;
31746;SDS011;18319;48.974;8.462;2022-12-08T07:52:40;16.50;;;10.73;;
31746;SDS011;18319;48.974;8.462;2022-12-08T07:55:08;18.53;;;10.60;;
31746;SDS011;18319;48.974;8.462;2022-12-08T07:57:36;17.30;;;10.07;;
31746;SDS011;18319;48.974;8.462;2022-12-08T08:00:04;16.67;;;10.90;;
31746;SDS011;18319;48.974;8.462;2022-12-08T08:02:31;19.97;;;11.33;;
31746;SDS011;18319;48.974;8.462;2022-12-08T08:04:58;18.07;;;10.93;;
31746;SDS011;18319;48.974;8.462;2022-12-08T08:07:25;15.90;;;10.00;;
31746;SDS011;18319;48.974;8.462;2022-12-08T08:09:52;18.17;;;11.23;;
31746;SDS011;18319;48.974;8.462;2022-12-08T08:12:19;15.00;;;9.67;;
31746;SDS011;18319;48.974;8.462;2022-12-08T08:14:48;15.53;;;10.00;;
31746;SDS011;18319;48.974;8.462;2022-12-08T08:17:15;16.27;;;10.17;;
31746;SDS011;18319;48.974;8.462;2022-12-08T08:19:42;18.47;;;10.97;;
31746;SDS011;18319;48.974;8.462;2022-12-08T08:22:09;15.17;;;9.93;;
31746;SDS011;18319;48.974;8.462;2022-12-08T08:24:36;17.57;;;11.17;;
31746;SDS011;18319;48.974;8.462;2022-12-08T08:27:03;15.73;;;10.40;;
31746;SDS011;18319;48.974;8.462;2022-12-08T08:29:30;17.53;;;11.20;;
31746;SDS011;18319;48.974;8.462;2022-12-08T08:31:59;19.37;;;11.07;;
31746;SDS011;18319;48.974;8.462;2022-12-08T08:34:26;18.63;;;11.23;;
31746;SDS011;18319;48.974;8.462;2022-12-08T08:36:53;18.93;;;11.27;;
31746;SDS011;18319;48.974;8.462;2022-12-08T08:39:20;21.77;;;11.40;;
31746;SDS011;18319;48.974;8.462;2022-12-08T08:41:47;16.43;;;11.17;;
31746;SDS011;18319;48.974;8.462;2022-12-08T08:44:14;17.97;;;10.20;;
31746;SDS011;18319;48.974;8.462;2022-12-08T08:46:42;16.07;;;10.37;;
31746;SDS011;18319;48.974;8.462;2022-12-08T08:49:10;17.60;;;9.80;;
31746;SDS011;18319;48.974;8.462;2022-12-08T08:51:38;16.00;;;11.53;;
31746;SDS011;18319;48.974;8.462;2022-12-08T08:54:05;23.53;;;11.97;;
31746;SDS011;18319;48.974;8.462;2022-12-08T08:56:32;19.90;;;10.13;;
31746;SDS011;18319;48.974;8.462;2022-12-08T08:58:59;16.00;;;10.43;;
31746;SDS011;18319;48.974;8.462;2022-12-08T09:01:27;15.63;;;9.93;;
31746;SDS011;18319;48.974;8.462;2022-12-08T09:03:54;17.33;;;11.17;;
31746;SDS011;18319;48.974;8.462;2022-12-08T09:06:22;14.20;;;9.90;;
31746;SDS011;18319;48.974;8.462;2022-12-08T09:08:50;14.77;;;9.27;;
31746;SDS011;18319;48.974;8.462;2022-12-08T09:11:17;17.77;;;10.80;;
31746;SDS011;18319;48.974;8.462;2022-12-08T09:13:46;16.33;;;10.70;;
31746;SDS011;18319;48.974;8.462;2022-12-08T09:16:14;15.83;;;10.20;;
31746;SDS011;18319;48.974;8.462;2022-12-08T09:18:41;19.07;;;10.40;;
31746;SDS011;18319;48.974;8.462;2022-12-08T09:21:09;14.27;;;9.90;;
31746;SDS011;18319;48.974;8.462;2022-12-08T09:23:38;18.23;;;9.83;;
31746;SDS011;18319;48.974;8.462;2022-12-08T09:26:05;13.00;;;8.87;;
31746;SDS011;18319;48.974;8.462;2022-12-08T09:28:32;14.90;;;10.60;;
31746;SDS011;18319;48.974;8.462;2022-12-08T09:31:00;18.33;;;10.43;;
31746;SDS011;18319;48.974;8.462;2022-12-08T09:33:27;14.43;;;10.10;;
31746;SDS011;18319;48.974;8.462;2022-12-08T09:35:54;14.00;;;10.30;;
31746;SDS011;18319;48.974;8.462;2022-12-08T09:38:21;16.93;;;10.07;;
31746;SDS011;18319;48.974;8.462;2022-12-08T09:40:50;15.27;;;9.70;;
31746;SDS011;18319;48.974;8.462;2022-12-08T09:43:21;14.40;;;9.23;;
31746;SDS011;18319;48.974;8.462;2022-12-08T09:45:50;14.87;;;9.53;;
31746;SDS011;18319;48.974;8.462;2022-12-08T09:48:17;15.70;;;9.93;;
31746;SDS011;18319;48.974;8.462;2022-12-08T09:50:46;15.30;;;9.10;;
31746;SDS011;18319;48.974;8.462;2022-12-08T09:53:14;16.17;;;9.60;;
31746;SDS011;18319;48.974;8.462;2022-12-08T09:55:43;13.37;;;8.67;;
31746;SDS011;18319;48.974;8.462;2022-12-08T09:58:16;14.30;;;10.50;;
31746;SDS011;18319;48.974;8.462;2022-12-08T10:00:46;15.30;;;10.33;;
31746;SDS011;18319;48.974;8.462;2022-12-08T10:03:13;17.50;;;9.67;;
31746;SDS011;18319;48.974;8.462;2022-12-08T10:05:42;15.80;;;9.93;;
31746;SDS011;18319;48.974;8.462;2022-12-08T10:08:11;16.73;;;10.23;;
31746;SDS011;18319;48.974;8.462;2022-12-08T10:10:41;15.40;;;9.80;;
31746;SDS011;18319;48.974;8.462;2022-12-08T10:13:14;12.53;;;8.77;;
31746;SDS011;18319;48.974;8.462;2022-12-08T10:15:45;17.07;;;9.43;;
31746;SDS011;18319;48.974;8.462;2022-12-08T10:18:14;12.90;;;9.53;;
31746;SDS011;18319;48.974;8.462;2022-12-08T10:20:43;14.23;;;8.90;;
31746;SDS011;18319;48.974;8.462;2022-12-08T10:23:15;12.57;;;9.63;;
31746;SDS011;18319;48.974;8.462;2022-12-08T10:25:45;11.57;;;8.97;;
31746;SDS011;18319;48.974;8.462;2022-12-08T10:28:13;18.13;;;10.47;;
31746;SDS011;18319;48.974;8.462;2022-12-08T10:30:40;13.63;;;9.33;;
31746;SDS011;18319;48.974;8.462;2022-12-08T10:33:10;15.50;;;9.93;;
31746;SDS011;18319;48.974;8.462;2022-12-08T10:35:43;15.70;;;9.83;;
31746;SDS011;18319;48.974;8.462;2022-12-08T10:38:18;11.87;;;9.23;;
31746;SDS011;18319;48.974;8.462;2022-12-08T10:40:46;14.23;;;10.37;;
31746;SDS011;18319;48.974;8.462;2022-12-08T10:43:14;16.67;;;9.43;;
31746;SDS011;18319;48.974;8.462;2022-12-08T10:45:43;17.43;;;10.53;;
31746;SDS011;18319;48.974;8.462;2022-12-08T10:48:15;14.63;;;9.80;;
31746;SDS011;18319;48.974;8.462;2022-12-08T10:50:43;14.57;;;9.43;;
31746;SDS011;18319;48.974;8.462;2022-12-08T10:53:12;11.67;;;8.23;;
31746;SDS011;18319;48.974;8.462;2022-12-08T10:55:40;14.73;;;9.33;;
31746;SDS011;18319;48.974;8.462;2022-12-08T10:58:24;13.27;;;9.50;;
31746;SDS011;18319;48.974;8.462;2022-12-08T11:00:52;13.43;;;9.60;;
31746;SDS011;18319;48.974;8.462;2022-12-08T11:03:23;11.00;;;8.43;;
31746;SDS011;18319;48.974;8.462;2022-12-08T11:05:54;13.13;;;8.40;;
31746;SDS011;18319;48.974;8.462;2022-12-08T11:08:21;15.30;;;9.43;;
31746;SDS011;18319;48.974;8.462;2022-12-08T11:10:49;11.47;;;8.53;;
31746;SDS011;18319;48.974;8.462;2022-12-08T11:13:17;14.47;;;9.10;;
31746;SDS011;18319;48.974;8.462;2022-12-08T11:15:45;11.80;;;8.40;;
31746;SDS011;18319;48.974;8.462;2022-12-08T11:18:20;15.00;;;8.90;;
31746;SDS011;18319;48.974;8.462;2022-12-08T11:20:54;10.60;;;7.47;;
31746;SDS011;18319;48.974;8.462;2022-12-08T11:23:23;14.13;;;8.20;;
31746;SDS011;18319;48.974;8.462;2022-12-08T11:25:50;10.70;;;8.30;;
31746;SDS011;18319;48.974;8.462;2022-12-08T11:28:21;9.10;;;7.33;;
31746;SDS011;18319;48.974;8.462;2022-12-08T11:30:51;12.23;;;8.60;;
31746;SDS011;18319;48.974;8.462;2022-12-08T11:33:22;13.13;;;7.87;;
31746;SDS011;18319;48.974;8.462;2022-12-08T11:35:51;11.23;;;7.87;;
31746;SDS011;18319;48.974;8.462;2022-12-08T11:38:20;15.63;;;9.33;;
31746;SDS011;18319;48.974;8.462;2022-12-08T11:40:49;13.70;;;8.70;;
31746;SDS011;18319;48.974;8.462;2022-12-08T11:43:19;11.33;;;7.97;;
31746;SDS011;18319;48.974;8.462;2022-12-08T11:45:48;10.67;;;7.07;;
31746;SDS011;18319;48.974;8.462;2022-12-08T11:48:18;10.77;;;7.20;;
31746;SDS011;18319;48.974;8.462;2022-12-08T11:50:49;11.93;;;7.87;;
31746;SDS011;18319;48.974;8.462;2022-12-08T11:53:21;8.23;;;6.47;;
31746;SDS011;18319;48.974;8.462;2022-12-08T11:55:49;8.93;;;6.13;;
31746;SDS011;18319;48.974;8.462;2022-12-08T11:58:20;8.67;;;6.73;;
31746;SDS011;18319;48.974;8.462;2022-12-08T12:00:48;7.10;;;6.30;;
31746;SDS011;18319;48.974;8.462;2022-12-08T12:03:19;6.73;;;5.53;;
31746;SDS011;18319;48.974;8.462;2022-12-08T12:05:49;7.73;;;5.87;;
31746;SDS011;18319;48.974;8.462;2022-12-08T12:08:27;7.70;;;5.93;;
31746;SDS011;18319;48.974;8.462;2022-12-08T12:11:03;9.47;;;6.57;;
31746;SDS011;18319;48.974;8.462;2022-12-08T12:13:40;9.93;;;6.70;;
31746;SDS011;18319;48.974;8.462;2022-12-08T12:16:23;7.07;;;5.53;;
31746;SDS011;18319;48.974;8.462;2022-12-08T12:18:53;8.53;;;6.37;;
31746;SDS011;18319;48.974;8.462;2022-12-08T12:21:23;7.20;;;5.60;;
31746;SDS011;18319;48.974;8.462;2022-12-08T12:23:53;9.77;;;5.80;;
31746;SDS011;18319;48.974;8.462;2022-12-08T12:26:22;8.60;;;5.73;;
31746;SDS011;18319;48.974;8.462;2022-12-08T12:28:51;5.83;;;4.93;;
31746;SDS011;18319;48.974;8.462;2022-12-08T12:31:21;8.00;;;5.60;;
31746;SDS011;18319;48.974;8.462;2022-12-08T12:33:48;7.57;;;5.43;;
31746;SDS011;18319;48.974;8.462;2022-12-08T12:36:16;8.00;;;5.00;;
31746;SDS011;18319;48.974;8.462;2022-12-08T12:38:45;8.00;;;5.20;;
31746;SDS011;18319;48.974;8.462;2022-12-08T12:41:33;6.43;;;4.63;;
31746;SDS011;18319;48.974;8.462;2022-12-08T12:44:06;7.50;;;5.40;;
31746;SDS011;18319;48.974;8.462;2022-12-08T12:46:39;6.83;;;5.30;;
31746;SDS011;18319;48.974;8.462;2022-12-08T12:51:57;6.83;;;4.97;;
31746;SDS011;18319;48.974;8.462;2022-12-08T12:54:25;6.43;;;4.60;;
31746;SDS011;18319;48.974;8.462;2022-12-08T12:56:54;5.33;;;4.63;;
31746;SDS011;18319;48.974;8.462;2022-12-08T12:59:39;6.87;;;5.07;;
31746;SDS011;18319;48.974;8.462;2022-12-08T13:02:18;5.70;;;4.53;;
31746;SDS011;18319;48.974;8.462;2022-12-08T13:04:51;6.40;;;4.60;;
31746;SDS011;18319;48.974;8.462;2022-12-08T13:07:19;9.03;;;3.90;;
31746;SDS011;18319;48.974;8.462;2022-12-08T13:09:47;5.33;;;4.83;;
31746;SDS011;18319;48.974;8.462;2022-12-08T13:12:22;4.23;;;3.83;;
31746;SDS011;18319;48.974;8.462;2022-12-08T13:14:50;4.70;;;4.07;;
31746;SDS011;18319;48.974;8.462;2022-12-08T13:17:22;5.63;;;4.13;;
31746;SDS011;18319;48.974;8.462;2022-12-08T13:19:50;5.90;;;4.03;;
31746;SDS011;18319;48.974;8.462;2022-12-08T13:27:52;5.33;;;4.00;;
31746;SDS011;18319;48.974;8.462;2022-12-08T13:30:38;4.90;;;4.40;;
31746;SDS011;18319;48.974;8.462;2022-12-08T13:33:09;7.03;;;3.77;;
31746;SDS011;18319;48.974;8.462;2022-12-08T13:35:37;4.30;;;3.90;;
31746;SDS011;18319;48.974;8.462;2022-12-08T13:38:06;4.70;;;3.93;;
31746;SDS011;18319;48.974;8.462;2022-12-08T13:40:33;5.83;;;4.20;;
31746;SDS011;18319;48.974;8.462;2022-12-08T13:43:08;6.07;;;4.20;;
31746;SDS011;18319;48.974;8.462;2022-12-08T13:45:36;3.87;;;3.40;;
31746;SDS011;18319;48.974;8.462;2022-12-08T13:48:09;4.87;;;4.47;;
31746;SDS011;18319;48.974;8.462;2022-12-08T13:50:38;5.80;;;4.43;;
31746;SDS011;18319;48.974;8.462;2022-12-08T13:53:09;5.10;;;4.33;;
31746;SDS011;18319;48.974;8.462;2022-12-08T13:55:39;4.63;;;3.73;;
31746;SDS011;18319;48.974;8.462;2022-12-08T13:58:08;6.17;;;4.10;;
31746;SDS011;18319;48.974;8.462;2022-12-08T14:00:41;6.00;;;4.80;;
31746;SDS011;18319;48.974;8.462;2022-12-08T14:03:09;6.70;;;4.27;;
31746;SDS011;18319;48.974;8.462;2022-12-08T14:05:39;6.20;;;5.60;;
31746;SDS011;18319;48.974;8.462;2022-12-08T14:08:12;4.97;;;4.43;;
31746;SDS011;18319;48.974;8.462;2022-12-08T14:10:43;5.07;;;4.10;;
31746;SDS011;18319;48.974;8.462;2022-12-08T14:13:12;4.87;;;3.90;;
31746;SDS011;18319;48.974;8.462;2022-12-08T14:15:40;4.53;;;3.77;;
31746;SDS011;18319;48.974;8.462;2022-12-08T14:18:18;4.80;;;3.93;;
31746;SDS011;18319;48.974;8.462;2022-12-08T14:20:51;5.83;;;4.07;;
31746;SDS011;18319;48.974;8.462;2022-12-08T14:23:24;6.07;;;4.40;;
31746;SDS011;18319;48.974;8.462;2022-12-08T14:25:51;6.87;;;4.20;;
31746;SDS011;18319;48.974;8.462;2022-12-08T14:28:20;7.00;;;4.60;;
31746;SDS011;18319;48.974;8.462;2022-12-08T14:30:47;8.27;;;4.63;;
31746;SDS011;18319;48.974;8.462;2022-12-08T14:33:15;6.07;;;4.77;;
31746;SDS011;18319;48.974;8.462;2022-12-08T14:35:42;4.33;;;3.93;;
31746;SDS011;18319;48.974;8.462;2022-12-08T14:38:15;5.63;;;4.40;;
31746;SDS011;18319;48.974;8.462;2022-12-08T14:40:43;4.87;;;3.83;;
31746;SDS011;18319;48.974;8.462;2022-12-08T14:43:12;6.27;;;4.37;;
31746;SDS011;18319;48.974;8.462;2022-12-08T14:45:49;6.67;;;4.67;;
31746;SDS011;18319;48.974;8.462;2022-12-08T14:48:18;7.83;;;5.37;;
31746;SDS011;18319;48.974;8.462;2022-12-08T14:50:45;5.27;;;4.10;;
31746;SDS011;18319;48.974;8.462;2022-12-08T14:53:19;6.93;;;4.70;;
31746;SDS011;18319;48.974;8.462;2022-12-08T14:55:47;7.27;;;5.30;;
31746;SDS011;18319;48.974;8.462;2022-12-08T14:58:18;4.97;;;4.50;;
31746;SDS011;18319;48.974;8.462;2022-12-08T15:00:50;7.20;;;5.23;;
31746;SDS011;18319;48.974;8.462;2022-12-08T15:03:18;5.50;;;5.00;;